Time;durP1;ratioP1;P1;durP2;ratioP2;P2;SDS_P1;SDS_P2;PMS_P1;PMS_P2;Temp;Humidity;BMP_temperature;BMP_pressure;BME280_temperature;BME280_humidity;BME280_pressure;Samples;Min_cycle;Max_cycle;Signal;HPM_P1;HPM_P2
2023/01/05 00:01:05;;;;;;;;;;;;;;;11.06;74.80;102474.78;5061927;28;19920;-81
2023/01/05 00:03:31;;;;;;;;;;;;;;;11.05;74.45;102465.09;5073668;28;19931;-83
2023/01/05 00:06:02;;;;;;;;;;;;;;;11.03;74.50;102470.22;5097129;28;19999;-83
2023/01/05 00:08:28;;;;;;;;;;;;;;;11.03;74.82;102464.06;5091602;28;19917;-83
2023/01/05 00:24:35;;;;;;;;;;;;;;;11.03;74.81;102440.53;5086681;28;19997;-83
2023/01/05 00:27:00;;;;;;;;;;;;;;;11.02;74.53;102437.00;5073874;28;20027;-83
2023/01/05 00:29:26;;;;;;;;;;;;;;;11.06;74.65;102432.94;5089584;28;19920;-83
2023/01/05 00:31:51;;;;;;;;;;;;;;;11.06;74.70;102426.00;5084135;28;20444;-83
2023/01/05 00:34:17;;;;;;;;;;;;;;;11.05;74.30;102431.09;5055272;28;20428;-83
2023/01/05 00:36:42;;;;;;;;;;;;;;;11.04;74.72;102426.69;5074890;28;20438;-83
2023/01/05 00:39:07;;;;;;;;;;;;;;;10.99;74.87;102421.09;5088903;28;20401;-83
2023/01/05 00:41:33;;;;;;;;;;;;;;;11.01;74.59;102427.34;5078145;28;20305;-83
2023/01/05 00:43:58;;;;;;;;;;;;;;;11.04;74.76;102424.06;5073519;28;19912;-83
2023/01/05 00:46:24;;;;;;;;;;;;;;;11.04;74.76;102424.06;5079090;28;20377;-83
2023/01/05 00:48:49;;;;;;;;;;;;;;;11.02;74.75;102423.03;5070486;28;20416;-83
2023/01/05 00:51:14;;;;;;;;;;;;;;;11.03;74.64;102420.53;5079791;28;19920;-82
2023/01/05 00:53:40;;;;;;;;;;;;;;;11.04;74.79;102422.34;5078751;28;20388;-83
2023/01/05 00:56:05;;;;;;;;;;;;;;;11.05;74.61;102420.63;5081171;28;20437;-83
2023/01/05 00:58:31;;;;;;;;;;;;;;;11.00;74.75;102413.34;5090493;28;20325;-82
2023/01/05 01:00:56;;;;;;;;;;;;;;;11.05;74.70;102424.19;5087497;28;19925;-82
2023/01/05 01:03:22;;;;;;;;;;;;;;;11.07;74.41;102412.16;5071751;28;19924;-83
2023/01/05 01:05:57;;;;;;;;;;;;;;;11.06;74.26;102414.63;5071891;28;20393;-83
2023/01/05 01:08:22;;;;;;;;;;;;;;;11.04;74.32;102417.13;5078770;28;19931;-83
2023/01/05 01:10:48;;;;;;;;;;;;;;;11.03;74.83;102411.75;5052931;28;19920;-82
2023/01/05 01:13:13;;;;;;;;;;;;;;;11.05;74.62;102408.50;5071006;28;20318;-82
2023/01/05 01:15:38;;;;;;;;;;;;;;;11.05;74.55;102402.34;5071682;28;20385;-83
2023/01/05 01:18:04;;;;;;;;;;;;;;;11.03;74.72;102402.25;5089251;28;20401;-83
2023/01/05 01:20:29;;;;;;;;;;;;;;;11.04;74.39;102398.81;5086949;28;19920;-83
2023/01/05 01:22:55;;;;;;;;;;;;;;;11.05;74.65;102391.88;5073325;28;20294;-83
2023/01/05 01:25:21;;;;;;;;;;;;;;;11.04;74.54;102384.84;5061478;28;19920;-83
2023/01/05 01:27:46;;;;;;;;;;;;;;;11.02;74.66;102382.09;5051823;28;20007;-83
2023/01/05 01:30:11;;;;;;;;;;;;;;;11.01;74.44;102380.28;5072231;28;19928;-84
2023/01/05 01:32:37;;;;;;;;;;;;;;;11.03;74.64;102381.34;5070492;28;19939;-84
2023/01/05 01:35:02;;;;;;;;;;;;;;;10.99;74.53;102379.25;5053314;28;19920;-83
2023/01/05 01:37:28;;;;;;;;;;;;;;;11.03;74.48;102376.09;5089355;28;19927;-84
2023/01/05 01:39:53;;;;;;;;;;;;;;;11.00;74.70;102373.22;5091279;28;19916;-84
2023/01/05 01:42:19;;;;;;;;;;;;;;;11.04;74.33;102369.16;5083030;28;19917;-84
2023/01/05 01:47:50;;;;;;;;;;;;;;;11.03;74.35;102364.72;5070511;28;19970;-83
2023/01/05 01:50:36;;;;;;;;;;;;;;;11.02;74.67;102355.06;5075241;28;19936;-84
2023/01/05 01:53:21;;;;;;;;;;;;;;;10.99;74.41;102356.63;5051132;28;19924;-83
2023/01/05 01:55:46;;;;;;;;;;;;;;;11.03;74.44;102359.47;5052298;28;20401;-83
2023/01/05 01:58:13;;;;;;;;;;;;;;;11.03;74.73;102356.88;5084916;28;19924;-84
2023/01/05 02:00:39;;;;;;;;;;;;;;;11.03;74.45;102357.81;5069617;28;20037;-83
2023/01/05 02:03:05;;;;;;;;;;;;;;;11.02;74.23;102350.72;5068988;28;19920;-83
2023/01/05 02:05:33;;;;;;;;;;;;;;;11.00;74.49;102345.38;5068749;28;19923;-83
2023/01/05 02:14:14;;;;;;;;;;;;;;;10.99;74.81;102333.13;5068030;28;20491;-83
2023/01/05 02:16:43;;;;;;;;;;;;;;;10.99;74.81;102340.97;5090896;28;19928;-83
2023/01/05 02:19:19;;;;;;;;;;;;;;;11.01;74.64;102328.00;5069120;28;20431;-83
2023/01/05 02:21:44;;;;;;;;;;;;;;;11.00;74.75;102326.19;5082666;28;19991;-83
2023/01/05 02:24:09;;;;;;;;;;;;;;;10.98;74.81;102318.25;5068914;28;19968;-83
2023/01/05 02:26:53;;;;;;;;;;;;;;;10.97;74.51;102319.00;5085858;28;20532;-83
2023/01/05 02:29:37;;;;;;;;;;;;;;;10.99;74.63;102317.44;5069810;28;20377;-83
2023/01/05 02:32:20;;;;;;;;;;;;;;;10.98;74.50;102312.06;5070670;28;20377;-83
2023/01/05 02:34:52;;;;;;;;;;;;;;;10.99;74.41;102304.38;5069546;28;20385;-83
2023/01/05 02:37:17;;;;;;;;;;;;;;;10.98;74.48;102302.56;5082347;28;20382;-83
2023/01/05 02:39:53;;;;;;;;;;;;;;;10.95;74.88;102298.78;5068003;28;19969;-83
2023/01/05 02:42:19;;;;;;;;;;;;;;;11.00;74.59;102292.19;5066062;28;19920;-83
2023/01/05 02:44:45;;;;;;;;;;;;;;;10.97;74.41;102295.50;5083477;28;19995;-83
2023/01/05 02:47:28;;;;;;;;;;;;;;;10.99;74.30;102285.16;5087785;28;19920;-83
2023/01/05 02:50:14;;;;;;;;;;;;;;;10.97;74.32;102282.41;5068235;28;19920;-83
2023/01/05 02:52:42;;;;;;;;;;;;;;;10.97;74.73;102274.56;5072011;28;19920;-83
2023/01/05 02:55:09;;;;;;;;;;;;;;;10.98;74.57;102273.81;5074995;28;19924;-84
2023/01/05 02:57:49;;;;;;;;;;;;;;;10.99;74.46;102266.88;5082586;28;19935;-84
2023/01/05 03:00:25;;;;;;;;;;;;;;;10.98;74.34;102273.81;5082463;28;19950;-83
2023/01/05 03:02:51;;;;;;;;;;;;;;;10.98;74.47;102265.03;5076676;28;19927;-83
2023/01/05 03:05:22;;;;;;;;;;;;;;;10.99;74.72;102269.47;5086247;28;20019;-84
2023/01/05 03:07:47;;;;;;;;;;;;;;;10.99;74.47;102259.03;5092083;28;19927;-83
2023/01/05 03:15:40;;;;;;;;;;;;;;;10.98;74.21;102255.50;5076739;28;19982;-83
2023/01/05 03:18:07;;;;;;;;;;;;;;;11.00;74.24;102245.16;5084970;28;20007;-83
2023/01/05 03:20:32;;;;;;;;;;;;;;;10.97;74.76;102255.38;5090579;28;19921;-83
2023/01/05 03:36:55;;;;;;;;;;;;;;;10.93;74.78;102250.72;5079164;28;19986;-81
2023/01/05 03:39:25;;;;;;;;;;;;;;;10.99;74.20;102240.72;5085858;28;20333;-81
2023/01/05 03:41:50;;;;;;;;;;;;;;;11.00;74.19;102238.19;5082310;28;19921;-81
2023/01/05 03:44:16;;;;;;;;;;;;;;;10.97;74.25;102235.38;5068404;28;19959;-83
2023/01/05 03:46:41;;;;;;;;;;;;;;;11.00;74.42;102227.75;5063753;28;20406;-83
2023/01/05 03:49:07;;;;;;;;;;;;;;;11.00;74.49;102219.91;5061961;28;20427;-83
2023/01/05 03:51:32;;;;;;;;;;;;;;;10.97;74.70;102221.41;5081041;28;20480;-83
2023/01/05 03:53:58;;;;;;;;;;;;;;;10.99;74.39;102209.34;5068621;28;19921;-83
2023/01/05 03:56:24;;;;;;;;;;;;;;;10.96;74.84;102211.72;5068773;28;20011;-84
2023/01/05 03:58:49;;;;;;;;;;;;;;;10.96;74.43;102214.34;5092964;28;19928;-84
2023/01/05 04:01:15;;;;;;;;;;;;;;;10.96;74.42;102206.50;5086552;28;19920;-85
2023/01/05 04:03:40;;;;;;;;;;;;;;;10.94;74.67;102208.06;5067451;28;20684;-85
2023/01/05 04:06:07;;;;;;;;;;;;;;;10.93;74.67;102209.78;5081997;28;19930;-84
2023/01/05 04:08:33;;;;;;;;;;;;;;;10.94;74.28;102205.47;5083237;28;19974;-84
2023/01/05 04:11:18;;;;;;;;;;;;;;;10.93;74.82;102203.66;5059798;28;19966;-84
2023/01/05 04:13:47;;;;;;;;;;;;;;;10.96;74.25;102198.66;5069713;28;19921;-84
2023/01/05 04:16:12;;;;;;;;;;;;;;;10.96;74.34;102202.19;5075119;28;19943;-83
2023/01/05 04:18:38;;;;;;;;;;;;;;;10.96;74.38;102194.34;5092743;28;19917;-83
2023/01/05 04:21:03;;;;;;;;;;;;;;;10.91;74.59;102200.91;5086138;28;19921;-83
2023/01/05 04:23:57;;;;;;;;;;;;;;;10.95;74.30;102200.38;5100909;28;19916;-84
2023/01/05 04:26:52;;;;;;;;;;;;;;;10.97;74.53;102196.16;5065761;28;19985;-84
2023/01/05 04:29:17;;;;;;;;;;;;;;;10.95;74.56;102200.38;5058159;28;19941;-85
2023/01/05 04:31:42;;;;;;;;;;;;;;;10.96;74.57;102201.25;5080804;28;19921;-85
2023/01/05 04:34:08;;;;;;;;;;;;;;;10.95;74.32;102207.31;5073199;28;20302;-84
2023/01/05 04:36:33;;;;;;;;;;;;;;;10.95;74.57;102202.06;5088445;28;20406;-83
2023/01/05 04:38:59;;;;;;;;;;;;;;;10.94;74.34;102192.41;5072882;28;20386;-83
2023/01/05 04:41:24;;;;;;;;;;;;;;;10.97;74.20;102184.81;5089284;28;20400;-82
2023/01/05 04:43:49;;;;;;;;;;;;;;;10.94;74.36;102182.88;5093195;28;20586;-83
2023/01/05 04:46:15;;;;;;;;;;;;;;;10.95;74.62;102181.16;5072861;28;20554;-83
2023/01/05 04:48:40;;;;;;;;;;;;;;;10.94;74.80;102184.56;5088968;28;20499;-84
2023/01/05 04:51:06;;;;;;;;;;;;;;;10.89;74.50;102189.44;5073291;28;19920;-84
2023/01/05 04:53:32;;;;;;;;;;;;;;;10.90;74.63;102187.72;5075457;28;19920;-83
2023/01/05 04:55:57;;;;;;;;;;;;;;;10.93;74.64;102195.81;5077625;28;19948;-83
2023/01/05 04:58:23;;;;;;;;;;;;;;;10.94;74.28;102189.78;5084500;28;20452;-83
2023/01/05 05:00:50;;;;;;;;;;;;;;;10.94;74.57;102181.94;5063103;28;19916;-84
2023/01/05 05:03:15;;;;;;;;;;;;;;;10.94;74.27;102168.88;5088256;28;20035;-85
2023/01/05 05:05:41;;;;;;;;;;;;;;;10.96;74.15;102183.91;5072960;28;20011;-85
2023/01/05 05:08:07;;;;;;;;;;;;;;;10.91;74.64;102195.69;5087279;28;20421;-83
2023/01/05 05:10:32;;;;;;;;;;;;;;;10.88;74.84;102192.88;5072068;28;19924;-84
2023/01/05 05:12:57;;;;;;;;;;;;;;;10.89;74.42;102194.66;5072667;28;19924;-84
2023/01/05 05:15:23;;;;;;;;;;;;;;;10.93;74.26;102191.50;5087118;28;20524;-84
2023/01/05 05:17:48;;;;;;;;;;;;;;;10.92;74.22;102188.75;5070484;28;19956;-84
2023/01/05 05:20:14;;;;;;;;;;;;;;;10.92;74.31;102186.16;5084341;28;20318;-84
2023/01/05 05:22:39;;;;;;;;;;;;;;;10.93;74.56;102183.66;5090221;28;19916;-85
2023/01/05 05:25:05;;;;;;;;;;;;;;;10.93;74.40;102185.38;5071391;28;19932;-84
2023/01/05 05:27:30;;;;;;;;;;;;;;;10.94;74.42;102171.47;5089164;28;20039;-84
2023/01/05 05:29:56;;;;;;;;;;;;;;;10.91;74.51;102166.94;5073787;28;19924;-84
2023/01/05 05:32:21;;;;;;;;;;;;;;;10.93;74.55;102172.31;5095786;28;19917;-83
2023/01/05 05:34:47;;;;;;;;;;;;;;;10.94;74.43;102172.41;5087602;28;20420;-85
2023/01/05 05:37:12;;;;;;;;;;;;;;;10.95;74.09;102171.59;5072215;28;20023;-85
2023/01/05 05:39:40;;;;;;;;;;;;;;;10.92;74.61;102167.84;5053493;28;20215;-85
2023/01/05 05:42:06;;;;;;;;;;;;;;;10.93;74.64;102165.34;5072221;28;20394;-84
2023/01/05 05:44:31;;;;;;;;;;;;;;;10.94;74.30;102154.13;5077748;28;19917;-83
2023/01/05 05:46:57;;;;;;;;;;;;;;;10.93;74.24;102151.38;5088529;28;19986;-83
2023/01/05 05:49:22;;;;;;;;;;;;;;;10.93;74.51;102146.16;5074273;28;20459;-84
2023/01/05 05:51:47;;;;;;;;;;;;;;;10.91;74.25;102142.53;5090428;28;19912;-83
2023/01/05 05:54:13;;;;;;;;;;;;;;;10.90;74.27;102140.69;5071833;28;20526;-83
2023/01/05 05:56:38;;;;;;;;;;;;;;;10.91;74.52;102146.03;5071560;28;20422;-84
2023/01/05 05:59:04;;;;;;;;;;;;;;;10.90;74.66;102139.00;5061785;28;20350;-84
2023/01/05 06:01:29;;;;;;;;;;;;;;;10.87;74.73;102141.38;5085251;28;19920;-84
2023/01/05 06:03:55;;;;;;;;;;;;;;;10.86;74.42;102129.13;5053713;28;19917;-84
2023/01/05 06:06:20;;;;;;;;;;;;;;;10.89;74.32;102134.56;5073727;28;19924;-84
2023/01/05 06:08:45;;;;;;;;;;;;;;;10.88;74.50;102127.53;5088924;28;19925;-85
2023/01/05 06:11:11;;;;;;;;;;;;;;;10.87;74.40;102125.69;5076834;28;19920;-85
2023/01/05 06:13:36;;;;;;;;;;;;;;;10.88;74.49;102123.97;5071331;28;19938;-85
2023/01/05 06:16:02;;;;;;;;;;;;;;;10.89;74.65;102113.66;5070921;28;19921;-85
2023/01/05 06:18:27;;;;;;;;;;;;;;;10.88;74.51;102110.91;5091692;28;19979;-85
2023/01/05 06:20:53;;;;;;;;;;;;;;;10.90;74.54;102110.25;5069241;28;19917;-85
2023/01/05 06:23:18;;;;;;;;;;;;;;;10.89;74.57;102103.19;5071254;28;20355;-85
2023/01/05 06:25:44;;;;;;;;;;;;;;;10.85;74.46;102111.59;5069980;28;20364;-84
2023/01/05 06:28:09;;;;;;;;;;;;;;;10.88;74.36;102111.84;5082509;28;19928;-83
2023/01/05 06:30:35;;;;;;;;;;;;;;;10.88;74.23;102104.00;5068232;28;19932;-85
2023/01/05 06:33:00;;;;;;;;;;;;;;;10.85;74.54;102106.38;5085469;28;20460;-84
2023/01/05 06:35:26;;;;;;;;;;;;;;;10.85;74.80;102113.31;5083247;28;19921;-86
2023/01/05 06:37:51;;;;;;;;;;;;;;;10.85;74.60;102106.38;5086326;28;20464;-85
2023/01/05 06:40:17;;;;;;;;;;;;;;;10.87;74.64;102107.41;5071123;28;20325;-85
2023/01/05 06:42:42;;;;;;;;;;;;;;;10.84;74.49;102099.34;5078506;28;19975;-85
2023/01/05 06:45:09;;;;;;;;;;;;;;;10.82;74.53;102102.66;5068906;28;20019;-84
2023/01/05 06:50:50;;;;;;;;;;;;;;;10.85;74.75;102098.53;5069904;28;20026;-83
2023/01/05 06:53:15;;;;;;;;;;;;;;;10.84;74.78;102090.56;5059048;28;19968;-82
2023/01/05 06:55:41;;;;;;;;;;;;;;;10.83;74.43;102094.00;5070624;28;20286;-86
2023/01/05 06:58:06;;;;;;;;;;;;;;;10.83;74.82;102086.16;5071979;28;20372;-84
2023/01/05 07:00:32;;;;;;;;;;;;;;;10.80;74.75;102090.38;5064740;28;19916;-85
2023/01/05 07:02:57;;;;;;;;;;;;;;;10.86;74.71;102095.16;5053965;28;19917;-82
2023/01/05 07:05:29;;;;;;;;;;;;;;;10.86;74.77;102096.81;5056327;28;19921;-85
2023/01/05 07:08:03;;;;;;;;;;;;;;;10.88;74.33;102090.00;5051842;28;19926;-83
2023/01/05 07:10:35;;;;;;;;;;;;;;;10.84;74.56;102087.97;5080060;28;20424;-86
2023/01/05 07:13:00;;;;;;;;;;;;;;;10.76;75.12;102080.47;5064390;28;19916;-85
2023/01/05 07:15:25;;;;;;;;;;;;;;;10.77;74.61;102076.16;5086237;28;19973;-85
2023/01/05 07:17:51;;;;;;;;;;;;;;;10.77;74.95;102081.38;5080206;28;19962;-85
2023/01/05 07:20:16;;;;;;;;;;;;;;;10.80;74.90;102079.91;5069741;28;19964;-84
2023/01/05 07:22:42;;;;;;;;;;;;;;;10.86;74.50;102076.84;5085972;28;19923;-85
2023/01/05 07:25:07;;;;;;;;;;;;;;;10.89;74.20;102074.44;5052436;28;19916;-85
2023/01/05 07:27:33;;;;;;;;;;;;;;;10.92;74.15;102071.16;5068310;28;20425;-85
2023/01/05 07:29:58;;;;;;;;;;;;;;;10.89;74.32;102074.44;5086234;28;19946;-85
2023/01/05 07:32:24;;;;;;;;;;;;;;;10.91;74.56;102067.63;5070096;28;20387;-85
2023/01/05 07:34:49;;;;;;;;;;;;;;;10.94;74.35;102065.25;5068426;28;20397;-86
2023/01/05 07:37:15;;;;;;;;;;;;;;;10.94;74.57;102059.09;5038346;28;19921;-84
2023/01/05 07:39:40;;;;;;;;;;;;;;;10.94;74.19;102070.50;5062260;28;20012;-85
2023/01/05 07:42:25;;;;;;;;;;;;;;;10.94;74.12;102073.09;5093628;28;20423;-86
2023/01/05 07:44:51;;;;;;;;;;;;;;;10.93;74.18;102058.19;5065536;28;19916;-87
2023/01/05 07:47:17;;;;;;;;;;;;;;;10.95;74.50;102056.59;5040323;28;19921;-86
2023/01/05 07:49:53;;;;;;;;;;;;;;;10.95;74.17;102053.09;5060418;28;19924;-85
2023/01/05 07:52:48;;;;;;;;;;;;;;;10.97;74.45;102051.50;5074567;28;19924;-85
2023/01/05 07:55:13;;;;;;;;;;;;;;;10.97;74.56;102047.19;5102673;28;19923;-86
2023/01/05 07:57:38;;;;;;;;;;;;;;;10.98;74.41;102048.06;5083870;28;19921;-86
2023/01/05 08:00:39;;;;;;;;;;;;;;;11.00;74.15;102051.72;5044267;28;19923;-88
2023/01/05 08:03:05;;;;;;;;;;;;;;;11.03;74.39;102045.78;5055292;28;19916;-86
2023/01/05 08:05:33;;;;;;;;;;;;;;;10.99;74.39;102048.19;5070698;28;20294;-86
2023/01/05 08:07:58;;;;;;;;;;;;;;;11.02;74.11;102046.59;5039949;28;20007;-86
2023/01/05 08:10:29;;;;;;;;;;;;;;;11.02;74.23;102042.28;5088544;28;20011;-86
2023/01/05 08:15:44;;;;;;;;;;;;;;;11.05;74.07;102026.84;5085334;28;19927;-86
2023/01/05 08:18:09;;;;;;;;;;;;;;;11.09;74.24;102027.94;5073267;28;19984;-86
2023/01/05 08:20:35;;;;;;;;;;;;;;;11.10;73.99;102029.78;5068994;28;19920;-87
2023/01/05 08:23:00;;;;;;;;;;;;;;;11.09;74.11;102025.31;5036123;28;19924;-85
2023/01/05 08:25:26;;;;;;;;;;;;;;;11.10;74.04;102014.09;5062141;28;20372;-85
2023/01/05 08:27:58;;;;;;;;;;;;;;;11.09;74.09;102017.47;5082677;28;20410;-85
2023/01/05 08:30:23;;;;;;;;;;;;;;;11.09;74.12;102013.19;5053146;28;19924;-85
2023/01/05 08:32:49;;;;;;;;;;;;;;;11.09;74.20;102004.41;5071335;28;20479;-85
2023/01/05 08:35:14;;;;;;;;;;;;;;;11.12;74.19;102002.94;5079982;28;19974;-85
2023/01/05 08:37:39;;;;;;;;;;;;;;;11.13;74.11;101999.53;5066915;28;20418;-85
2023/01/05 08:40:05;;;;;;;;;;;;;;;11.14;74.03;102001.34;5088934;28;19920;-83
2023/01/05 08:42:34;;;;;;;;;;;;;;;11.14;74.34;102003.06;5053687;28;19977;-84
2023/01/05 08:45:05;;;;;;;;;;;;;;;11.17;74.14;101992.78;5046257;28;20397;-84
2023/01/05 08:47:31;;;;;;;;;;;;;;;11.03;74.72;101986.59;5053445;28;19928;-85
2023/01/05 08:49:56;;;;;;;;;;;;;;;11.10;74.57;101987.94;5088716;28;19916;-85
2023/01/05 08:52:49;;;;;;;;;;;;;;;11.20;74.09;101973.00;5054495;28;19916;-83
2023/01/05 08:55:35;;;;;;;;;;;;;;;11.16;74.89;101967.47;5060382;28;19920;-85
2023/01/05 09:04:28;;;;;;;;;;;;;;;11.20;74.79;101953.81;4990862;28;19925;-82
2023/01/05 09:07:00;;;;;;;;;;;;;;;11.26;74.76;101945.47;4988372;28;19918;-83
2023/01/05 09:12:29;;;;;;;;;;;;;;;11.29;74.71;101925.69;4973718;28;19924;-84
2023/01/05 09:18:32;;;;;;;;;;;;;;;11.29;75.26;101910.00;4982599;28;20435;-84
2023/01/05 09:37:25;;;;;;;;;;;;;;;11.30;76.24;101862.13;4911722;29;19938;-87
2023/01/05 09:43:27;;;;;;;;;;;;;;;11.36;76.23;101851.16;4932046;29;19925;-86
2023/01/05 09:52:12;;;;;;;;;;;;;;;11.37;76.30;101825.13;4961745;28;19925;-86
2023/01/05 09:54:49;;;;;;;;;;;;;;;11.39;76.88;101825.25;4967461;28;19924;-84
2023/01/05 09:57:29;;;;;;;;;;;;;;;11.31;76.96;101816.88;5051507;28;20051;-86
2023/01/05 10:00:14;;;;;;;;;;;;;;;11.20;77.82;101810.91;5078000;28;20033;-86
2023/01/05 10:09:20;;;;;;;;;;;;;;;11.29;77.54;101786.19;4986872;28;20457;-87
2023/01/05 10:17:50;;;;;;;;;;;;;;;11.32;77.45;101755.91;4985023;28;19945;-86
2023/01/05 10:20:17;;;;;;;;;;;;;;;11.34;77.67;101758.63;4985336;28;20415;-86
2023/01/05 10:22:45;;;;;;;;;;;;;;;11.38;77.40;101758.91;5017892;28;19916;-87
2023/01/05 10:25:20;;;;;;;;;;;;;;;11.39;77.30;101741.53;5066823;28;20412;-86
2023/01/05 10:27:47;;;;;;;;;;;;;;;11.31;78.09;101737.50;5050690;28;19956;-87
2023/01/05 10:30:23;;;;;;;;;;;;;;;11.40;77.43;101732.88;5066662;28;19917;-87
2023/01/05 10:32:56;;;;;;;;;;;;;;;11.41;77.42;101722.53;5065886;28;19920;-87
2023/01/05 10:35:21;;;;;;;;;;;;;;;11.39;77.81;101707.56;5086975;28;19921;-86
2023/01/05 10:37:57;;;;;;;;;;;;;;;11.33;78.10;101710.66;5070954;28;19923;-87
2023/01/05 10:40:27;;;;;;;;;;;;;;;11.37;77.81;101709.16;5071078;28;20466;-88
2023/01/05 10:42:52;;;;;;;;;;;;;;;11.29;78.03;101705.13;5085971;28;19960;-87
2023/01/05 10:45:18;;;;;;;;;;;;;;;11.33;78.14;101691.44;5070365;28;19964;-85
2023/01/05 10:47:44;;;;;;;;;;;;;;;11.35;78.07;101684.63;5070470;28;20298;-86
2023/01/05 10:50:28;;;;;;;;;;;;;;;11.41;77.84;101678.06;5070732;28;19944;-86
2023/01/05 10:52:54;;;;;;;;;;;;;;;11.40;78.52;101680.56;5070449;28;19927;-85
2023/01/05 10:55:22;;;;;;;;;;;;;;;11.41;78.66;101664.09;5068331;28;19917;-86
2023/01/05 10:57:57;;;;;;;;;;;;;;;11.41;78.03;101665.00;5085111;28;19924;-87
2023/01/05 11:00:36;;;;;;;;;;;;;;;11.46;78.35;101659.16;5053809;28;20467;-86
2023/01/05 11:03:02;;;;;;;;;;;;;;;11.46;78.90;101661.78;5069669;28;19916;-86
2023/01/05 11:05:33;;;;;;;;;;;;;;;11.45;79.04;101663.50;5090179;28;20412;-87
2023/01/05 11:08:06;;;;;;;;;;;;;;;11.43;79.03;101656.31;5071084;28;19931;-86
2023/01/05 11:10:38;;;;;;;;;;;;;;;11.41;79.25;101651.91;5086686;28;19920;-86
2023/01/05 11:13:16;;;;;;;;;;;;;;;11.46;78.18;101641.75;5075715;28;19978;-86
2023/01/05 11:15:42;;;;;;;;;;;;;;;11.45;78.35;101633.78;5060506;28;19924;-86
2023/01/05 11:18:16;;;;;;;;;;;;;;;11.49;78.70;101644.53;5052899;28;19917;-85
2023/01/05 11:21:14;;;;;;;;;;;;;;;11.50;78.81;101641.13;5089590;28;20012;-84
2023/01/05 11:23:51;;;;;;;;;;;;;;;11.51;79.38;101632.47;5052050;28;20790;-88
2023/01/05 11:26:25;;;;;;;;;;;;;;;11.49;79.13;101635.81;5071941;28;19920;-88
2023/01/05 11:28:54;;;;;;;;;;;;;;;11.48;78.69;101619.22;5074943;28;19916;-89
2023/01/05 11:31:27;;;;;;;;;;;;;;;11.49;78.27;101613.16;5080158;28;20439;-88
2023/01/05 11:33:56;;;;;;;;;;;;;;;11.47;78.76;101606.03;5099219;28;19921;-88
2023/01/05 11:36:22;;;;;;;;;;;;;;;11.52;78.97;101596.78;5104692;28;20003;-88
2023/01/05 11:38:53;;;;;;;;;;;;;;;11.51;78.70;101587.09;5111093;28;19966;-88
2023/01/05 11:41:20;;;;;;;;;;;;;;;11.57;78.82;101595.34;5093630;28;20293;-88
2023/01/05 11:43:45;;;;;;;;;;;;;;;11.56;78.53;101580.47;5093660;28;19945;-88
2023/01/05 11:46:14;;;;;;;;;;;;;;;11.61;78.28;101581.66;5103886;28;19928;-88
2023/01/05 11:48:45;;;;;;;;;;;;;;;11.64;77.83;101587.09;5105528;28;19924;-88
2023/01/05 11:51:25;;;;;;;;;;;;;;;11.62;78.54;101580.84;5090596;28;19971;-88
2023/01/05 11:53:51;;;;;;;;;;;;;;;11.62;78.77;101573.00;5080084;28;19928;-89
2023/01/05 11:56:20;;;;;;;;;;;;;;;11.66;78.04;101568.84;5084149;28;19947;-89
2023/01/05 11:58:49;;;;;;;;;;;;;;;11.65;78.80;101574.91;5121061;27;20336;-88
2023/01/05 12:01:30;;;;;;;;;;;;;;;11.70;78.08;101568.25;5098088;28;19947;-88
2023/01/05 12:04:00;;;;;;;;;;;;;;;11.74;78.99;101560.66;5083290;28;19928;-88
2023/01/05 12:06:33;;;;;;;;;;;;;;;11.77;78.96;101558.25;5095372;28;19920;-88
2023/01/05 12:08:59;;;;;;;;;;;;;;;11.77;78.85;101566.09;5081966;28;20416;-89
2023/01/05 12:11:24;;;;;;;;;;;;;;;11.77;78.09;101559.97;5075372;28;19927;-86
2023/01/05 12:14:01;;;;;;;;;;;;;;;11.80;78.78;101555.81;5080453;28;20004;-87
2023/01/05 12:16:28;;;;;;;;;;;;;;;11.79;78.46;101543.56;5108630;27;19970;-87
2023/01/05 12:19:03;;;;;;;;;;;;;;;11.82;78.04;101556.81;5072750;28;19936;-87
2023/01/05 12:21:37;;;;;;;;;;;;;;;11.81;78.47;101530.56;5109927;28;20014;-87
2023/01/05 12:24:05;;;;;;;;;;;;;;;11.79;77.85;101540.94;5109448;28;19988;-87
2023/01/05 12:27:09;;;;;;;;;;;;;;;11.79;78.63;101530.47;5109403;28;19927;-88
2023/01/05 12:29:47;;;;;;;;;;;;;;;11.76;78.78;101526.75;5090248;28;19924;-88
2023/01/05 12:32:19;;;;;;;;;;;;;;;11.79;78.66;101529.56;5068474;28;20463;-86
2023/01/05 12:34:55;;;;;;;;;;;;;;;11.79;78.18;101519.09;5066291;28;20402;-87
2023/01/05 12:37:23;;;;;;;;;;;;;;;11.80;78.88;101511.31;5078167;28;19999;-87
2023/01/05 12:39:55;;;;;;;;;;;;;;;11.84;78.41;101515.03;5108255;28;20317;-88
2023/01/05 12:42:23;;;;;;;;;;;;;;;11.80;78.58;101507.81;5090908;28;20385;-87
2023/01/05 12:44:58;;;;;;;;;;;;;;;11.79;78.46;101522.63;5087892;28;20014;-87
2023/01/05 12:47:32;;;;;;;;;;;;;;;11.82;78.60;101521.91;5105984;28;20309;-87
2023/01/05 12:50:16;;;;;;;;;;;;;;;11.84;78.49;101520.28;5093112;28;20011;-87
2023/01/05 12:52:43;;;;;;;;;;;;;;;11.91;78.17;101514.63;5087660;28;19916;-87
2023/01/05 12:55:14;;;;;;;;;;;;;;;11.91;78.50;101519.84;5103350;28;20385;-88
2023/01/05 12:57:44;;;;;;;;;;;;;;;11.88;78.40;101516.16;5107686;27;19942;-87
2023/01/05 13:00:11;;;;;;;;;;;;;;;11.87;78.21;101519.56;5104676;28;19920;-88
2023/01/05 13:02:43;;;;;;;;;;;;;;;11.83;78.43;101507.97;5080459;28;19959;-88
2023/01/05 13:05:18;;;;;;;;;;;;;;;11.84;78.86;101509.81;5086120;28;19916;-88
2023/01/05 13:07:47;;;;;;;;;;;;;;;11.84;78.59;101508.91;5103599;28;19920;-87
2023/01/05 13:10:18;;;;;;;;;;;;;;;11.83;78.58;101505.38;5094349;28;19928;-88
2023/01/05 13:12:44;;;;;;;;;;;;;;;11.87;78.73;101509.97;5079699;28;19950;-87
2023/01/05 13:15:09;;;;;;;;;;;;;;;11.89;79.75;101512.72;5096933;28;20535;-88
2023/01/05 13:17:36;;;;;;;;;;;;;;;11.88;79.22;101510.91;5097442;28;20001;-87
2023/01/05 13:20:21;;;;;;;;;;;;;;;11.89;79.30;101512.72;5111300;27;19967;-87
2023/01/05 13:22:47;;;;;;;;;;;;;;;11.98;79.58;101515.91;5107667;27;19920;-89
2023/01/05 13:25:18;;;;;;;;;;;;;;;11.93;80.38;101515.63;5105036;28;19984;-88
2023/01/05 13:27:44;;;;;;;;;;;;;;;11.95;79.91;101521.84;5092626;28;19920;-87
2023/01/05 13:30:18;;;;;;;;;;;;;;;11.94;80.21;101520.06;5080917;28;19916;-88
2023/01/05 13:32:56;;;;;;;;;;;;;;;11.98;79.68;101522.06;5094161;28;20491;-88
2023/01/05 13:35:25;;;;;;;;;;;;;;;11.95;80.92;101532.31;5107583;28;20371;-87
2023/01/05 13:37:56;;;;;;;;;;;;;;;12.05;78.89;101541.66;5097567;28;20011;-88
2023/01/05 13:40:41;;;;;;;;;;;;;;;12.08;79.19;101539.19;5103777;28;19912;-88
2023/01/05 13:43:11;;;;;;;;;;;;;;;12.11;79.26;101541.13;5090890;28;20389;-88
2023/01/05 13:45:59;;;;;;;;;;;;;;;12.13;78.92;101537.78;5108444;27;19916;-88
2023/01/05 13:48:25;;;;;;;;;;;;;;;12.17;79.47;101546.69;5079024;28;19927;-89
2023/01/05 13:50:51;;;;;;;;;;;;;;;12.16;79.85;101552.75;5114424;27;20413;-88
2023/01/05 13:53:20;;;;;;;;;;;;;;;12.16;79.58;101545.81;5090625;28;19928;-88
2023/01/05 13:55:50;;;;;;;;;;;;;;;12.17;79.91;101547.63;5103912;28;19956;-88
2023/01/05 13:58:26;;;;;;;;;;;;;;;12.16;80.54;101535.34;5076034;28;19916;-88
2023/01/05 14:00:52;;;;;;;;;;;;;;;12.14;80.47;101534.34;5082674;28;20294;-89
2023/01/05 14:03:21;;;;;;;;;;;;;;;12.20;79.93;101520.72;5107441;28;19923;-88
2023/01/05 14:05:46;;;;;;;;;;;;;;;12.17;80.55;101510.97;5090327;28;19924;-88
2023/01/05 14:08:26;;;;;;;;;;;;;;;12.17;79.49;101502.19;5090083;28;19969;-89
2023/01/05 14:11:10;;;;;;;;;;;;;;;12.20;80.29;101497.16;5085895;28;19920;-89
2023/01/05 14:13:44;;;;;;;;;;;;;;;12.21;80.48;101489.41;5108329;28;19935;-88
2023/01/05 14:16:29;;;;;;;;;;;;;;;12.19;80.65;101477.94;5119809;27;19920;-88
2023/01/05 14:18:56;;;;;;;;;;;;;;;12.20;80.37;101474.47;5105057;28;19931;-88
2023/01/05 14:21:59;;;;;;;;;;;;;;;12.24;80.46;101470.34;5103671;28;19990;-88
2023/01/05 14:24:37;;;;;;;;;;;;;;;12.25;79.73;101464.28;5083388;28;19988;-87
2023/01/05 14:27:10;;;;;;;;;;;;;;;12.26;79.92;101460.84;5080969;28;20003;-88